sensor_id;sensor_type;location;lat;lon;timestamp;P1;durP1;ratioP1;P2;durP2;ratioP2
11854;SDS011;5987;53.140;8.904;2022-07-04T00:01:10;6.17;;;5.40;;
11854;SDS011;5987;53.140;8.904;2022-07-04T00:04:14;8.20;;;4.27;;
11854;SDS011;5987;53.140;8.904;2022-07-04T00:07:21;6.47;;;4.23;;
11854;SDS011;5987;53.140;8.904;2022-07-04T00:10:24;8.13;;;5.13;;
11854;SDS011;5987;53.140;8.904;2022-07-04T00:13:28;5.87;;;4.50;;
11854;SDS011;5987;53.140;8.904;2022-07-04T00:16:32;8.03;;;5.40;;
11854;SDS011;5987;53.140;8.904;2022-07-04T00:19:37;8.90;;;5.47;;
11854;SDS011;5987;53.140;8.904;2022-07-04T00:22:42;7.40;;;5.93;;
11854;SDS011;5987;53.140;8.904;2022-07-04T00:25:47;7.87;;;5.97;;
11854;SDS011;5987;53.140;8.904;2022-07-04T00:28:50;9.27;;;6.83;;
11854;SDS011;5987;53.140;8.904;2022-07-04T00:31:54;10.33;;;6.93;;
11854;SDS011;5987;53.140;8.904;2022-07-04T00:34:58;11.60;;;7.20;;
11854;SDS011;5987;53.140;8.904;2022-07-04T00:38:03;13.10;;;7.03;;
11854;SDS011;5987;53.140;8.904;2022-07-04T00:41:07;12.17;;;7.60;;
11854;SDS011;5987;53.140;8.904;2022-07-04T00:44:11;9.23;;;7.27;;
11854;SDS011;5987;53.140;8.904;2022-07-04T00:47:16;11.40;;;8.33;;
11854;SDS011;5987;53.140;8.904;2022-07-04T00:50:20;9.83;;;7.47;;
11854;SDS011;5987;53.140;8.904;2022-07-04T00:53:27;12.47;;;7.93;;
11854;SDS011;5987;53.140;8.904;2022-07-04T00:56:31;8.80;;;7.20;;
11854;SDS011;5987;53.140;8.904;2022-07-04T00:59:38;8.70;;;7.47;;
11854;SDS011;5987;53.140;8.904;2022-07-04T01:02:42;10.20;;;8.07;;
11854;SDS011;5987;53.140;8.904;2022-07-04T01:05:46;10.40;;;7.33;;
11854;SDS011;5987;53.140;8.904;2022-07-04T01:08:52;11.10;;;8.57;;
11854;SDS011;5987;53.140;8.904;2022-07-04T01:11:56;12.90;;;8.53;;
11854;SDS011;5987;53.140;8.904;2022-07-04T01:14:59;12.03;;;8.13;;
11854;SDS011;5987;53.140;8.904;2022-07-04T01:18:03;11.83;;;8.73;;
11854;SDS011;5987;53.140;8.904;2022-07-04T01:21:08;11.50;;;8.63;;
11854;SDS011;5987;53.140;8.904;2022-07-04T01:24:12;14.70;;;9.13;;
11854;SDS011;5987;53.140;8.904;2022-07-04T01:27:16;13.37;;;9.13;;
11854;SDS011;5987;53.140;8.904;2022-07-04T01:30:20;15.50;;;9.97;;
11854;SDS011;5987;53.140;8.904;2022-07-04T01:33:24;13.90;;;10.23;;
11854;SDS011;5987;53.140;8.904;2022-07-04T01:36:31;11.27;;;9.23;;
11854;SDS011;5987;53.140;8.904;2022-07-04T01:39:34;13.00;;;10.27;;
11854;SDS011;5987;53.140;8.904;2022-07-04T01:42:38;13.10;;;10.03;;
11854;SDS011;5987;53.140;8.904;2022-07-04T01:45:42;13.23;;;10.80;;
11854;SDS011;5987;53.140;8.904;2022-07-04T01:48:46;15.40;;;10.37;;
11854;SDS011;5987;53.140;8.904;2022-07-04T01:51:51;12.70;;;10.57;;
11854;SDS011;5987;53.140;8.904;2022-07-04T01:54:55;11.83;;;10.27;;
11854;SDS011;5987;53.140;8.904;2022-07-04T01:57:59;13.40;;;9.20;;
11854;SDS011;5987;53.140;8.904;2022-07-04T02:01:03;10.70;;;9.37;;
11854;SDS011;5987;53.140;8.904;2022-07-04T02:04:24;12.70;;;9.53;;
11854;SDS011;5987;53.140;8.904;2022-07-04T02:07:29;12.40;;;9.70;;
11854;SDS011;5987;53.140;8.904;2022-07-04T02:10:32;10.70;;;8.63;;
11854;SDS011;5987;53.140;8.904;2022-07-04T02:13:37;10.83;;;9.23;;
11854;SDS011;5987;53.140;8.904;2022-07-04T02:16:39;11.70;;;9.33;;
11854;SDS011;5987;53.140;8.904;2022-07-04T02:19:43;11.47;;;9.00;;
11854;SDS011;5987;53.140;8.904;2022-07-04T02:22:49;8.97;;;7.83;;
11854;SDS011;5987;53.140;8.904;2022-07-04T02:25:53;9.93;;;8.60;;
11854;SDS011;5987;53.140;8.904;2022-07-04T02:28:57;12.07;;;9.20;;
11854;SDS011;5987;53.140;8.904;2022-07-04T02:32:01;11.23;;;9.37;;
11854;SDS011;5987;53.140;8.904;2022-07-04T02:35:05;11.60;;;9.17;;
11854;SDS011;5987;53.140;8.904;2022-07-04T02:38:12;10.93;;;9.53;;
11854;SDS011;5987;53.140;8.904;2022-07-04T02:41:16;16.07;;;10.43;;
11854;SDS011;5987;53.140;8.904;2022-07-04T02:44:20;12.57;;;10.47;;
11854;SDS011;5987;53.140;8.904;2022-07-04T02:47:24;13.03;;;11.13;;
11854;SDS011;5987;53.140;8.904;2022-07-04T02:50:28;13.13;;;10.43;;
11854;SDS011;5987;53.140;8.904;2022-07-04T02:53:33;16.90;;;11.00;;
11854;SDS011;5987;53.140;8.904;2022-07-04T02:56:37;16.37;;;11.13;;
11854;SDS011;5987;53.140;8.904;2022-07-04T02:59:41;13.93;;;10.80;;
11854;SDS011;5987;53.140;8.904;2022-07-04T03:02:44;12.57;;;10.93;;
11854;SDS011;5987;53.140;8.904;2022-07-04T03:05:48;14.10;;;11.13;;
11854;SDS011;5987;53.140;8.904;2022-07-04T03:08:53;16.40;;;11.97;;
11854;SDS011;5987;53.140;8.904;2022-07-04T03:11:57;16.23;;;11.50;;
11854;SDS011;5987;53.140;8.904;2022-07-04T03:15:01;18.93;;;11.50;;
11854;SDS011;5987;53.140;8.904;2022-07-04T03:18:05;14.83;;;11.00;;
11854;SDS011;5987;53.140;8.904;2022-07-04T03:21:08;15.27;;;11.47;;
11854;SDS011;5987;53.140;8.904;2022-07-04T03:24:14;15.90;;;11.47;;
11854;SDS011;5987;53.140;8.904;2022-07-04T03:27:18;13.97;;;11.17;;
11854;SDS011;5987;53.140;8.904;2022-07-04T03:30:22;14.53;;;11.07;;
11854;SDS011;5987;53.140;8.904;2022-07-04T03:33:26;13.53;;;11.97;;
11854;SDS011;5987;53.140;8.904;2022-07-04T03:36:30;15.43;;;11.53;;
11854;SDS011;5987;53.140;8.904;2022-07-04T03:39:35;15.80;;;10.93;;
11854;SDS011;5987;53.140;8.904;2022-07-04T03:42:38;14.20;;;11.37;;
11854;SDS011;5987;53.140;8.904;2022-07-04T03:45:42;13.80;;;10.80;;
11854;SDS011;5987;53.140;8.904;2022-07-04T03:48:46;11.97;;;9.97;;
11854;SDS011;5987;53.140;8.904;2022-07-04T03:51:50;13.57;;;9.57;;
11854;SDS011;5987;53.140;8.904;2022-07-04T03:54:55;12.03;;;9.13;;
11854;SDS011;5987;53.140;8.904;2022-07-04T03:57:58;10.10;;;8.13;;
11854;SDS011;5987;53.140;8.904;2022-07-04T04:01:02;10.83;;;8.13;;
11854;SDS011;5987;53.140;8.904;2022-07-04T04:04:06;10.73;;;8.27;;
11854;SDS011;5987;53.140;8.904;2022-07-04T04:07:27;9.97;;;7.80;;
11854;SDS011;5987;53.140;8.904;2022-07-04T04:10:32;11.03;;;8.33;;
11854;SDS011;5987;53.140;8.904;2022-07-04T04:13:36;12.03;;;8.23;;
11854;SDS011;5987;53.140;8.904;2022-07-04T04:16:39;9.57;;;7.40;;
11854;SDS011;5987;53.140;8.904;2022-07-04T04:19:44;7.80;;;7.00;;
11854;SDS011;5987;53.140;8.904;2022-07-04T04:22:48;7.47;;;6.57;;
11854;SDS011;5987;53.140;8.904;2022-07-04T04:25:54;9.80;;;6.13;;
11854;SDS011;5987;53.140;8.904;2022-07-04T04:29:03;12.47;;;5.77;;
11854;SDS011;5987;53.140;8.904;2022-07-04T04:32:07;7.30;;;6.17;;
11854;SDS011;5987;53.140;8.904;2022-07-04T04:35:11;8.07;;;6.53;;
11854;SDS011;5987;53.140;8.904;2022-07-04T04:38:15;10.20;;;6.57;;
11854;SDS011;5987;53.140;8.904;2022-07-04T04:41:20;11.83;;;6.90;;
11854;SDS011;5987;53.140;8.904;2022-07-04T04:44:24;9.37;;;6.40;;
11854;SDS011;5987;53.140;8.904;2022-07-04T04:47:28;8.57;;;6.63;;
11854;SDS011;5987;53.140;8.904;2022-07-04T04:50:32;8.83;;;7.23;;
11854;SDS011;5987;53.140;8.904;2022-07-04T04:53:35;7.37;;;6.07;;
11854;SDS011;5987;53.140;8.904;2022-07-04T04:56:40;9.67;;;6.70;;
11854;SDS011;5987;53.140;8.904;2022-07-04T04:59:44;11.77;;;6.73;;
11854;SDS011;5987;53.140;8.904;2022-07-04T05:02:53;10.23;;;5.73;;
11854;SDS011;5987;53.140;8.904;2022-07-04T05:05:57;7.83;;;5.50;;
11854;SDS011;5987;53.140;8.904;2022-07-04T05:09:01;8.73;;;5.13;;
11854;SDS011;5987;53.140;8.904;2022-07-04T05:12:07;7.85;;;4.45;;
11854;SDS011;5987;53.140;8.904;2022-07-04T05:15:11;9.33;;;4.40;;
11854;SDS011;5987;53.140;8.904;2022-07-04T05:18:14;8.60;;;4.60;;
11854;SDS011;5987;53.140;8.904;2022-07-04T05:21:18;5.67;;;3.60;;
11854;SDS011;5987;53.140;8.904;2022-07-04T05:24:22;6.73;;;3.73;;
11854;SDS011;5987;53.140;8.904;2022-07-04T05:27:27;10.63;;;3.43;;
11854;SDS011;5987;53.140;8.904;2022-07-04T05:30:32;5.57;;;2.90;;
11854;SDS011;5987;53.140;8.904;2022-07-04T05:33:36;6.60;;;3.10;;
11854;SDS011;5987;53.140;8.904;2022-07-04T05:36:40;7.50;;;2.60;;
11854;SDS011;5987;53.140;8.904;2022-07-04T05:39:43;3.33;;;2.30;;
11854;SDS011;5987;53.140;8.904;2022-07-04T05:42:48;5.90;;;2.80;;
11854;SDS011;5987;53.140;8.904;2022-07-04T05:45:52;5.00;;;2.10;;
11854;SDS011;5987;53.140;8.904;2022-07-04T05:48:56;3.13;;;1.80;;
11854;SDS011;5987;53.140;8.904;2022-07-04T05:52:00;5.60;;;2.40;;
11854;SDS011;5987;53.140;8.904;2022-07-04T05:55:04;4.13;;;2.03;;
11854;SDS011;5987;53.140;8.904;2022-07-04T05:58:11;5.87;;;2.37;;
11854;SDS011;5987;53.140;8.904;2022-07-04T06:01:15;4.30;;;2.00;;
11854;SDS011;5987;53.140;8.904;2022-07-04T06:04:20;8.37;;;2.10;;
11854;SDS011;5987;53.140;8.904;2022-07-04T06:07:24;3.70;;;1.63;;
11854;SDS011;5987;53.140;8.904;2022-07-04T06:10:28;3.70;;;1.90;;
11854;SDS011;5987;53.140;8.904;2022-07-04T06:13:33;4.27;;;1.90;;
11854;SDS011;5987;53.140;8.904;2022-07-04T06:16:37;4.60;;;2.00;;
11854;SDS011;5987;53.140;8.904;2022-07-04T06:19:42;2.20;;;1.67;;
11854;SDS011;5987;53.140;8.904;2022-07-04T06:22:46;2.67;;;1.73;;
11854;SDS011;5987;53.140;8.904;2022-07-04T06:25:52;2.93;;;1.87;;
11854;SDS011;5987;53.140;8.904;2022-07-04T06:28:57;3.13;;;1.40;;
11854;SDS011;5987;53.140;8.904;2022-07-04T06:32:01;3.00;;;1.40;;
11854;SDS011;5987;53.140;8.904;2022-07-04T06:35:05;3.23;;;1.30;;
11854;SDS011;5987;53.140;8.904;2022-07-04T06:38:28;2.30;;;1.20;;
11854;SDS011;5987;53.140;8.904;2022-07-04T06:41:32;3.67;;;1.20;;
11854;SDS011;5987;53.140;8.904;2022-07-04T06:44:37;1.47;;;1.10;;
11854;SDS011;5987;53.140;8.904;2022-07-04T06:47:41;3.27;;;0.93;;
11854;SDS011;5987;53.140;8.904;2022-07-04T06:50:46;1.83;;;0.87;;
11854;SDS011;5987;53.140;8.904;2022-07-04T06:53:49;4.47;;;1.30;;
11854;SDS011;5987;53.140;8.904;2022-07-04T06:56:54;1.47;;;0.97;;
11854;SDS011;5987;53.140;8.904;2022-07-04T07:00:19;2.13;;;1.00;;
11854;SDS011;5987;53.140;8.904;2022-07-04T07:03:23;1.80;;;1.00;;
11854;SDS011;5987;53.140;8.904;2022-07-04T07:06:29;2.83;;;1.23;;
11854;SDS011;5987;53.140;8.904;2022-07-04T07:09:36;2.57;;;0.90;;
11854;SDS011;5987;53.140;8.904;2022-07-04T07:12:41;2.13;;;0.77;;
11854;SDS011;5987;53.140;8.904;2022-07-04T07:15:46;0.93;;;0.50;;
11854;SDS011;5987;53.140;8.904;2022-07-04T07:18:50;3.07;;;0.80;;
11854;SDS011;5987;53.140;8.904;2022-07-04T07:21:53;2.63;;;0.60;;
11854;SDS011;5987;53.140;8.904;2022-07-04T07:24:59;3.77;;;0.93;;
11854;SDS011;5987;53.140;8.904;2022-07-04T07:28:03;1.90;;;0.80;;
11854;SDS011;5987;53.140;8.904;2022-07-04T07:31:08;2.30;;;0.80;;
11854;SDS011;5987;53.140;8.904;2022-07-04T07:34:12;2.27;;;0.90;;
11854;SDS011;5987;53.140;8.904;2022-07-04T07:37:16;5.20;;;1.07;;
11854;SDS011;5987;53.140;8.904;2022-07-04T07:40:22;4.87;;;0.90;;
11854;SDS011;5987;53.140;8.904;2022-07-04T07:43:25;2.33;;;0.70;;
11854;SDS011;5987;53.140;8.904;2022-07-04T07:46:31;1.23;;;0.73;;
11854;SDS011;5987;53.140;8.904;2022-07-04T07:49:35;3.37;;;1.00;;
11854;SDS011;5987;53.140;8.904;2022-07-04T07:52:39;4.30;;;0.70;;
11854;SDS011;5987;53.140;8.904;2022-07-04T07:55:43;1.93;;;0.90;;
11854;SDS011;5987;53.140;8.904;2022-07-04T07:58:46;3.10;;;0.63;;
11854;SDS011;5987;53.140;8.904;2022-07-04T08:01:52;4.00;;;0.90;;
11854;SDS011;5987;53.140;8.904;2022-07-04T08:04:56;3.13;;;0.90;;
11854;SDS011;5987;53.140;8.904;2022-07-04T08:07:58;2.53;;;1.03;;
11854;SDS011;5987;53.140;8.904;2022-07-04T08:11:03;5.77;;;1.10;;
11854;SDS011;5987;53.140;8.904;2022-07-04T08:14:07;1.63;;;0.80;;
11854;SDS011;5987;53.140;8.904;2022-07-04T08:17:13;2.07;;;0.70;;
11854;SDS011;5987;53.140;8.904;2022-07-04T08:20:16;3.30;;;1.00;;
11854;SDS011;5987;53.140;8.904;2022-07-04T08:23:20;2.30;;;0.77;;
11854;SDS011;5987;53.140;8.904;2022-07-04T08:26:24;1.27;;;0.70;;
11854;SDS011;5987;53.140;8.904;2022-07-04T08:29:28;2.00;;;0.77;;
11854;SDS011;5987;53.140;8.904;2022-07-04T08:32:35;4.40;;;0.97;;
11854;SDS011;5987;53.140;8.904;2022-07-04T08:35:39;2.33;;;1.20;;
11854;SDS011;5987;53.140;8.904;2022-07-04T08:38:43;3.30;;;0.80;;
11854;SDS011;5987;53.140;8.904;2022-07-04T08:41:46;1.73;;;0.80;;
11854;SDS011;5987;53.140;8.904;2022-07-04T08:44:54;1.80;;;0.80;;
11854;SDS011;5987;53.140;8.904;2022-07-04T08:48:01;2.47;;;0.70;;
11854;SDS011;5987;53.140;8.904;2022-07-04T08:51:09;1.23;;;0.50;;
11854;SDS011;5987;53.140;8.904;2022-07-04T08:54:19;2.10;;;0.73;;
11854;SDS011;5987;53.140;8.904;2022-07-04T08:57:42;5.97;;;0.73;;
11854;SDS011;5987;53.140;8.904;2022-07-04T09:01:04;1.67;;;0.70;;
11854;SDS011;5987;53.140;8.904;2022-07-04T09:04:17;2.17;;;0.70;;
11854;SDS011;5987;53.140;8.904;2022-07-04T09:07:24;2.50;;;0.83;;
11854;SDS011;5987;53.140;8.904;2022-07-04T09:10:31;2.20;;;0.90;;
11854;SDS011;5987;53.140;8.904;2022-07-04T09:13:35;2.17;;;0.80;;
11854;SDS011;5987;53.140;8.904;2022-07-04T09:16:39;3.37;;;0.80;;
11854;SDS011;5987;53.140;8.904;2022-07-04T09:19:44;4.53;;;0.90;;
11854;SDS011;5987;53.140;8.904;2022-07-04T09:23:17;1.40;;;0.70;;
11854;SDS011;5987;53.140;8.904;2022-07-04T09:26:22;2.50;;;0.90;;
11854;SDS011;5987;53.140;8.904;2022-07-04T09:29:26;2.10;;;0.77;;
11854;SDS011;5987;53.140;8.904;2022-07-04T09:32:33;1.50;;;0.83;;
11854;SDS011;5987;53.140;8.904;2022-07-04T09:35:40;2.27;;;0.70;;
11854;SDS011;5987;53.140;8.904;2022-07-04T09:38:44;2.27;;;0.60;;
11854;SDS011;5987;53.140;8.904;2022-07-04T09:41:52;2.50;;;0.70;;
11854;SDS011;5987;53.140;8.904;2022-07-04T09:45:03;2.40;;;0.97;;
11854;SDS011;5987;53.140;8.904;2022-07-04T09:48:09;1.13;;;0.83;;
11854;SDS011;5987;53.140;8.904;2022-07-04T09:51:14;3.23;;;0.90;;
11854;SDS011;5987;53.140;8.904;2022-07-04T09:54:37;3.47;;;1.47;;
11854;SDS011;5987;53.140;8.904;2022-07-04T09:57:43;3.13;;;0.77;;
11854;SDS011;5987;53.140;8.904;2022-07-04T10:00:48;3.80;;;1.00;;
11854;SDS011;5987;53.140;8.904;2022-07-04T10:03:53;2.40;;;0.77;;
11854;SDS011;5987;53.140;8.904;2022-07-04T10:06:58;1.63;;;0.70;;
11854;SDS011;5987;53.140;8.904;2022-07-04T10:10:10;1.10;;;0.70;;
11854;SDS011;5987;53.140;8.904;2022-07-04T10:13:35;3.03;;;1.20;;
11854;SDS011;5987;53.140;8.904;2022-07-04T10:16:40;1.10;;;0.77;;
11854;SDS011;5987;53.140;8.904;2022-07-04T10:19:44;3.07;;;0.90;;
11854;SDS011;5987;53.140;8.904;2022-07-04T10:22:53;2.13;;;0.80;;
11854;SDS011;5987;53.140;8.904;2022-07-04T10:25:57;3.33;;;1.20;;
11854;SDS011;5987;53.140;8.904;2022-07-04T10:29:01;2.43;;;0.80;;
11854;SDS011;5987;53.140;8.904;2022-07-04T10:32:06;1.43;;;0.80;;
11854;SDS011;5987;53.140;8.904;2022-07-04T10:35:14;4.00;;;0.90;;
11854;SDS011;5987;53.140;8.904;2022-07-04T10:38:21;2.60;;;0.70;;
11854;SDS011;5987;53.140;8.904;2022-07-04T10:41:26;1.97;;;0.87;;
11854;SDS011;5987;53.140;8.904;2022-07-04T10:44:34;2.57;;;1.10;;
11854;SDS011;5987;53.140;8.904;2022-07-04T10:47:39;3.20;;;0.80;;
11854;SDS011;5987;53.140;8.904;2022-07-04T10:50:56;1.60;;;0.60;;
11854;SDS011;5987;53.140;8.904;2022-07-04T10:54:05;2.43;;;1.07;;
11854;SDS011;5987;53.140;8.904;2022-07-04T10:57:13;4.60;;;1.17;;
11854;SDS011;5987;53.140;8.904;2022-07-04T11:00:20;4.17;;;0.90;;
11854;SDS011;5987;53.140;8.904;2022-07-04T11:03:24;3.13;;;1.00;;
11854;SDS011;5987;53.140;8.904;2022-07-04T11:13:27;1.90;;;1.00;;
11854;SDS011;5987;53.140;8.904;2022-07-04T11:16:46;2.97;;;0.87;;
11854;SDS011;5987;53.140;8.904;2022-07-04T11:19:58;0.83;;;0.80;;
11854;SDS011;5987;53.140;8.904;2022-07-04T11:23:03;2.80;;;0.80;;
11854;SDS011;5987;53.140;8.904;2022-07-04T11:26:09;3.17;;;0.87;;
11854;SDS011;5987;53.140;8.904;2022-07-04T11:29:16;3.00;;;0.87;;
11854;SDS011;5987;53.140;8.904;2022-07-04T11:32:20;1.93;;;0.80;;
11854;SDS011;5987;53.140;8.904;2022-07-04T11:35:33;3.73;;;0.80;;
11854;SDS011;5987;53.140;8.904;2022-07-04T11:42:05;2.27;;;0.80;;
11854;SDS011;5987;53.140;8.904;2022-07-04T11:45:28;4.63;;;1.03;;
11854;SDS011;5987;53.140;8.904;2022-07-04T11:48:32;4.37;;;1.10;;
11854;SDS011;5987;53.140;8.904;2022-07-04T11:51:41;1.77;;;0.60;;
11854;SDS011;5987;53.140;8.904;2022-07-04T11:54:47;1.27;;;0.70;;
11854;SDS011;5987;53.140;8.904;2022-07-04T11:57:56;2.80;;;0.87;;
11854;SDS011;5987;53.140;8.904;2022-07-04T12:01:00;3.10;;;0.80;;
11854;SDS011;5987;53.140;8.904;2022-07-04T12:07:23;1.27;;;0.50;;
11854;SDS011;5987;53.140;8.904;2022-07-04T12:10:30;2.13;;;0.97;;
11854;SDS011;5987;53.140;8.904;2022-07-04T12:13:35;2.80;;;0.70;;
11854;SDS011;5987;53.140;8.904;2022-07-04T12:16:39;2.37;;;0.70;;
11854;SDS011;5987;53.140;8.904;2022-07-04T12:19:56;6.33;;;1.43;;
11854;SDS011;5987;53.140;8.904;2022-07-04T12:23:01;1.57;;;0.70;;
11854;SDS011;5987;53.140;8.904;2022-07-04T12:26:05;3.17;;;0.73;;
11854;SDS011;5987;53.140;8.904;2022-07-04T12:29:12;1.57;;;0.50;;
11854;SDS011;5987;53.140;8.904;2022-07-04T12:32:44;2.17;;;0.80;;
11854;SDS011;5987;53.140;8.904;2022-07-04T12:35:50;2.00;;;0.80;;
11854;SDS011;5987;53.140;8.904;2022-07-04T12:38:59;1.50;;;0.60;;
11854;SDS011;5987;53.140;8.904;2022-07-04T12:42:06;1.57;;;0.83;;
11854;SDS011;5987;53.140;8.904;2022-07-04T12:45:23;1.90;;;0.73;;
11854;SDS011;5987;53.140;8.904;2022-07-04T12:48:28;0.97;;;0.60;;
11854;SDS011;5987;53.140;8.904;2022-07-04T12:51:33;1.47;;;0.80;;
11854;SDS011;5987;53.140;8.904;2022-07-04T12:54:37;1.83;;;0.87;;
11854;SDS011;5987;53.140;8.904;2022-07-04T12:57:42;2.27;;;0.97;;
11854;SDS011;5987;53.140;8.904;2022-07-04T13:00:47;1.60;;;1.03;;
11854;SDS011;5987;53.140;8.904;2022-07-04T13:03:50;2.50;;;1.00;;
11854;SDS011;5987;53.140;8.904;2022-07-04T13:06:54;3.13;;;0.90;;
11854;SDS011;5987;53.140;8.904;2022-07-04T13:09:58;2.40;;;0.90;;
11854;SDS011;5987;53.140;8.904;2022-07-04T13:13:02;3.03;;;1.40;;
11854;SDS011;5987;53.140;8.904;2022-07-04T13:16:08;2.43;;;1.20;;
11854;SDS011;5987;53.140;8.904;2022-07-04T13:19:11;3.27;;;1.23;;
11854;SDS011;5987;53.140;8.904;2022-07-04T13:22:18;2.87;;;1.23;;
11854;SDS011;5987;53.140;8.904;2022-07-04T13:25:24;7.83;;;1.60;;
11854;SDS011;5987;53.140;8.904;2022-07-04T13:28:29;2.93;;;0.97;;
11854;SDS011;5987;53.140;8.904;2022-07-04T13:31:34;2.30;;;1.17;;
11854;SDS011;5987;53.140;8.904;2022-07-04T13:34:39;3.57;;;1.10;;
11854;SDS011;5987;53.140;8.904;2022-07-04T13:37:43;5.03;;;1.30;;
11854;SDS011;5987;53.140;8.904;2022-07-04T13:40:46;5.40;;;1.40;;
11854;SDS011;5987;53.140;8.904;2022-07-04T13:43:50;2.93;;;1.27;;
11854;SDS011;5987;53.140;8.904;2022-07-04T13:46:58;4.23;;;1.60;;
11854;SDS011;5987;53.140;8.904;2022-07-04T13:50:07;4.03;;;2.00;;
11854;SDS011;5987;53.140;8.904;2022-07-04T13:53:12;2.47;;;1.30;;
11854;SDS011;5987;53.140;8.904;2022-07-04T13:56:15;2.70;;;0.93;;
11854;SDS011;5987;53.140;8.904;2022-07-04T13:59:19;5.33;;;1.30;;
11854;SDS011;5987;53.140;8.904;2022-07-04T14:02:25;4.40;;;1.20;;
11854;SDS011;5987;53.140;8.904;2022-07-04T14:05:29;2.67;;;1.10;;
11854;SDS011;5987;53.140;8.904;2022-07-04T14:08:33;2.70;;;1.30;;
11854;SDS011;5987;53.140;8.904;2022-07-04T14:11:37;5.50;;;1.40;;
11854;SDS011;5987;53.140;8.904;2022-07-04T14:14:41;1.73;;;1.20;;
11854;SDS011;5987;53.140;8.904;2022-07-04T14:17:48;3.00;;;1.10;;
11854;SDS011;5987;53.140;8.904;2022-07-04T14:20:51;1.60;;;0.90;;
11854;SDS011;5987;53.140;8.904;2022-07-04T14:23:55;3.20;;;0.90;;
11854;SDS011;5987;53.140;8.904;2022-07-04T14:26:59;0.93;;;0.80;;
11854;SDS011;5987;53.140;8.904;2022-07-04T14:30:03;1.60;;;0.90;;
11854;SDS011;5987;53.140;8.904;2022-07-04T14:33:10;1.97;;;1.17;;
11854;SDS011;5987;53.140;8.904;2022-07-04T14:36:14;3.10;;;0.83;;
11854;SDS011;5987;53.140;8.904;2022-07-04T14:39:18;4.60;;;1.03;;
11854;SDS011;5987;53.140;8.904;2022-07-04T14:42:22;2.40;;;0.80;;
11854;SDS011;5987;53.140;8.904;2022-07-04T14:45:26;2.67;;;1.07;;
11854;SDS011;5987;53.140;8.904;2022-07-04T14:48:31;2.13;;;1.10;;
11854;SDS011;5987;53.140;8.904;2022-07-04T14:51:35;2.57;;;1.13;;
11854;SDS011;5987;53.140;8.904;2022-07-04T14:54:41;1.97;;;0.90;;
11854;SDS011;5987;53.140;8.904;2022-07-04T14:57:46;2.47;;;1.17;;
11854;SDS011;5987;53.140;8.904;2022-07-04T15:00:50;6.00;;;1.40;;
11854;SDS011;5987;53.140;8.904;2022-07-04T15:03:55;1.93;;;1.17;;
11854;SDS011;5987;53.140;8.904;2022-07-04T15:06:59;2.83;;;1.07;;
11854;SDS011;5987;53.140;8.904;2022-07-04T15:10:04;2.67;;;1.07;;
11854;SDS011;5987;53.140;8.904;2022-07-04T15:13:08;5.17;;;0.93;;
11854;SDS011;5987;53.140;8.904;2022-07-04T15:16:12;3.67;;;1.20;;
11854;SDS011;5987;53.140;8.904;2022-07-04T15:19:26;5.03;;;1.10;;
11854;SDS011;5987;53.140;8.904;2022-07-04T15:22:30;3.10;;;1.27;;
11854;SDS011;5987;53.140;8.904;2022-07-04T15:25:51;2.27;;;1.13;;
11854;SDS011;5987;53.140;8.904;2022-07-04T15:28:55;1.90;;;0.77;;
11854;SDS011;5987;53.140;8.904;2022-07-04T15:31:59;2.77;;;1.03;;
11854;SDS011;5987;53.140;8.904;2022-07-04T15:35:11;2.90;;;1.10;;
11854;SDS011;5987;53.140;8.904;2022-07-04T15:38:15;1.13;;;1.00;;
11854;SDS011;5987;53.140;8.904;2022-07-04T15:41:19;4.50;;;1.40;;
11854;SDS011;5987;53.140;8.904;2022-07-04T15:44:23;3.13;;;1.00;;
11854;SDS011;5987;53.140;8.904;2022-07-04T15:47:27;2.50;;;1.23;;
11854;SDS011;5987;53.140;8.904;2022-07-04T15:50:32;2.47;;;1.00;;
11854;SDS011;5987;53.140;8.904;2022-07-04T15:53:35;2.27;;;0.90;;
11854;SDS011;5987;53.140;8.904;2022-07-04T15:56:39;2.17;;;1.00;;
11854;SDS011;5987;53.140;8.904;2022-07-04T15:59:43;2.23;;;1.10;;
11854;SDS011;5987;53.140;8.904;2022-07-04T16:02:47;3.57;;;1.00;;
11854;SDS011;5987;53.140;8.904;2022-07-04T16:05:52;2.53;;;1.10;;
11854;SDS011;5987;53.140;8.904;2022-07-04T16:08:56;1.90;;;0.80;;
11854;SDS011;5987;53.140;8.904;2022-07-04T16:12:00;2.53;;;1.00;;
11854;SDS011;5987;53.140;8.904;2022-07-04T16:15:04;1.57;;;1.10;;
11854;SDS011;5987;53.140;8.904;2022-07-04T16:18:09;0.93;;;0.70;;
11854;SDS011;5987;53.140;8.904;2022-07-04T16:21:14;2.90;;;0.90;;
11854;SDS011;5987;53.140;8.904;2022-07-04T16:24:18;1.90;;;0.80;;
11854;SDS011;5987;53.140;8.904;2022-07-04T16:27:21;2.40;;;0.90;;
11854;SDS011;5987;53.140;8.904;2022-07-04T16:30:25;1.70;;;1.10;;
11854;SDS011;5987;53.140;8.904;2022-07-04T16:33:33;2.67;;;1.20;;
11854;SDS011;5987;53.140;8.904;2022-07-04T16:36:38;2.07;;;1.10;;
11854;SDS011;5987;53.140;8.904;2022-07-04T16:39:42;2.77;;;0.90;;
11854;SDS011;5987;53.140;8.904;2022-07-04T16:42:45;2.80;;;0.90;;
11854;SDS011;5987;53.140;8.904;2022-07-04T16:45:49;4.97;;;1.60;;
11854;SDS011;5987;53.140;8.904;2022-07-04T16:48:53;3.83;;;1.30;;
11854;SDS011;5987;53.140;8.904;2022-07-04T16:51:58;2.53;;;1.30;;
11854;SDS011;5987;53.140;8.904;2022-07-04T16:55:02;3.53;;;1.70;;
11854;SDS011;5987;53.140;8.904;2022-07-04T16:58:13;1.43;;;1.13;;
11854;SDS011;5987;53.140;8.904;2022-07-04T17:01:17;4.03;;;1.43;;
11854;SDS011;5987;53.140;8.904;2022-07-04T17:04:21;5.47;;;2.00;;
11854;SDS011;5987;53.140;8.904;2022-07-04T17:07:26;2.77;;;1.33;;
11854;SDS011;5987;53.140;8.904;2022-07-04T17:10:30;2.10;;;1.10;;
11854;SDS011;5987;53.140;8.904;2022-07-04T17:13:34;3.07;;;1.20;;
11854;SDS011;5987;53.140;8.904;2022-07-04T17:16:44;3.83;;;1.30;;
11854;SDS011;5987;53.140;8.904;2022-07-04T17:19:48;5.37;;;1.27;;
11854;SDS011;5987;53.140;8.904;2022-07-04T17:22:53;5.33;;;1.97;;
11854;SDS011;5987;53.140;8.904;2022-07-04T17:25:57;3.17;;;1.40;;
11854;SDS011;5987;53.140;8.904;2022-07-04T17:29:01;4.10;;;1.60;;
11854;SDS011;5987;53.140;8.904;2022-07-04T17:32:07;6.03;;;1.80;;
11854;SDS011;5987;53.140;8.904;2022-07-04T17:35:11;4.53;;;1.43;;
11854;SDS011;5987;53.140;8.904;2022-07-04T17:38:16;4.00;;;1.73;;
11854;SDS011;5987;53.140;8.904;2022-07-04T17:41:20;3.07;;;1.50;;
11854;SDS011;5987;53.140;8.904;2022-07-04T17:44:41;5.77;;;1.50;;
11854;SDS011;5987;53.140;8.904;2022-07-04T17:47:44;4.87;;;1.30;;
11854;SDS011;5987;53.140;8.904;2022-07-04T17:50:48;3.97;;;1.87;;
11854;SDS011;5987;53.140;8.904;2022-07-04T17:53:53;8.33;;;2.03;;
11854;SDS011;5987;53.140;8.904;2022-07-04T17:56:57;4.37;;;1.67;;
11854;SDS011;5987;53.140;8.904;2022-07-04T18:00:01;3.77;;;1.13;;
11854;SDS011;5987;53.140;8.904;2022-07-04T18:03:06;3.67;;;1.13;;
11854;SDS011;5987;53.140;8.904;2022-07-04T18:06:09;3.10;;;1.47;;
11854;SDS011;5987;53.140;8.904;2022-07-04T18:09:15;5.90;;;1.60;;
11854;SDS011;5987;53.140;8.904;2022-07-04T18:12:19;3.97;;;1.40;;
11854;SDS011;5987;53.140;8.904;2022-07-04T18:15:30;3.33;;;1.23;;
11854;SDS011;5987;53.140;8.904;2022-07-04T18:18:34;6.83;;;1.37;;
11854;SDS011;5987;53.140;8.904;2022-07-04T18:21:37;7.03;;;1.60;;
11854;SDS011;5987;53.140;8.904;2022-07-04T18:24:42;3.37;;;1.43;;
11854;SDS011;5987;53.140;8.904;2022-07-04T18:27:47;4.00;;;1.50;;
11854;SDS011;5987;53.140;8.904;2022-07-04T18:30:50;2.47;;;1.30;;
11854;SDS011;5987;53.140;8.904;2022-07-04T18:33:54;5.50;;;1.60;;
11854;SDS011;5987;53.140;8.904;2022-07-04T18:36:59;2.87;;;1.20;;
11854;SDS011;5987;53.140;8.904;2022-07-04T18:40:04;1.93;;;1.20;;
11854;SDS011;5987;53.140;8.904;2022-07-04T18:43:30;4.07;;;1.60;;
11854;SDS011;5987;53.140;8.904;2022-07-04T18:46:33;3.93;;;1.67;;
11854;SDS011;5987;53.140;8.904;2022-07-04T18:49:36;5.17;;;1.63;;
11854;SDS011;5987;53.140;8.904;2022-07-04T18:52:43;5.40;;;1.63;;
11854;SDS011;5987;53.140;8.904;2022-07-04T18:55:48;2.33;;;1.40;;
11854;SDS011;5987;53.140;8.904;2022-07-04T18:58:53;4.33;;;1.43;;
11854;SDS011;5987;53.140;8.904;2022-07-04T19:01:57;4.10;;;1.47;;
11854;SDS011;5987;53.140;8.904;2022-07-04T19:05:01;4.07;;;1.20;;